sensor_id;sensor_type;location;lat;lon;timestamp;pressure;altitude;pressure_sealevel;temperature;humidity
550;BME280;20066;48.764;9.176;2023-04-25T00:01:28;97603.66;;;12.28;54.35
550;BME280;20066;48.764;9.176;2023-04-25T00:03:57;97600.25;;;11.97;54.26
550;BME280;20066;48.764;9.176;2023-04-25T00:06:25;97596.34;;;11.07;56.75
550;BME280;20066;48.764;9.176;2023-04-25T00:08:53;97595.31;;;11.31;56.15
550;BME280;20066;48.764;9.176;2023-04-25T00:11:22;97587.00;;;11.18;56.21
550;BME280;20066;48.764;9.176;2023-04-25T00:13:50;97590.03;;;10.42;58.19
550;BME280;20066;48.764;9.176;2023-04-25T00:16:17;97582.25;;;10.96;56.56
550;BME280;20066;48.764;9.176;2023-04-25T00:18:45;97584.59;;;11.88;54.14
550;BME280;20066;48.764;9.176;2023-04-25T00:21:19;97579.25;;;11.85;53.84
550;BME280;20066;48.764;9.176;2023-04-25T00:23:47;97580.63;;;12.47;52.20
550;BME280;20066;48.764;9.176;2023-04-25T00:26:15;97583.91;;;12.34;51.60
550;BME280;20066;48.764;9.176;2023-04-25T00:28:43;97583.13;;;12.11;53.24
550;BME280;20066;48.764;9.176;2023-04-25T00:31:11;97585.78;;;12.37;52.04
550;BME280;20066;48.764;9.176;2023-04-25T00:33:39;97576.72;;;12.51;51.87
550;BME280;20066;48.764;9.176;2023-04-25T00:36:07;97583.06;;;12.61;53.38
550;BME280;20066;48.764;9.176;2023-04-25T00:38:36;97576.88;;;12.64;53.50
550;BME280;20066;48.764;9.176;2023-04-25T00:41:05;97573.69;;;12.69;53.87
550;BME280;20066;48.764;9.176;2023-04-25T00:43:34;97570.44;;;12.58;53.90
550;BME280;20066;48.764;9.176;2023-04-25T00:46:03;97579.16;;;12.89;53.39
550;BME280;20066;48.764;9.176;2023-04-25T00:48:31;97576.50;;;12.62;53.32
550;BME280;20066;48.764;9.176;2023-04-25T00:50:59;97570.34;;;12.15;53.46
550;BME280;20066;48.764;9.176;2023-04-25T00:53:27;97562.78;;;12.29;53.51
550;BME280;20066;48.764;9.176;2023-04-25T00:55:57;97560.53;;;12.28;54.80
550;BME280;20066;48.764;9.176;2023-04-25T00:58:25;97561.66;;;11.77;54.81
550;BME280;20066;48.764;9.176;2023-04-25T01:00:53;97563.75;;;12.19;54.58
550;BME280;20066;48.764;9.176;2023-04-25T01:03:21;97561.78;;;11.96;55.18
550;BME280;20066;48.764;9.176;2023-04-25T01:05:49;97558.50;;;12.09;55.66
550;BME280;20066;48.764;9.176;2023-04-25T01:08:18;97553.97;;;12.02;55.33
550;BME280;20066;48.764;9.176;2023-04-25T01:10:46;97550.66;;;12.18;55.88
550;BME280;20066;48.764;9.176;2023-04-25T01:13:15;97552.38;;;11.81;54.21
550;BME280;20066;48.764;9.176;2023-04-25T01:15:43;97546.97;;;11.51;57.44
550;BME280;20066;48.764;9.176;2023-04-25T01:18:11;97548.16;;;10.82;57.57
550;BME280;20066;48.764;9.176;2023-04-25T01:20:40;97550.88;;;11.16;55.70
550;BME280;20066;48.764;9.176;2023-04-25T01:23:10;97541.72;;;11.97;54.39
550;BME280;20066;48.764;9.176;2023-04-25T01:25:38;97532.16;;;12.20;55.06
550;BME280;20066;48.764;9.176;2023-04-25T01:28:06;97538.88;;;12.08;58.55
550;BME280;20066;48.764;9.176;2023-04-25T01:30:35;97547.31;;;12.10;56.99
550;BME280;20066;48.764;9.176;2023-04-25T01:33:04;97547.44;;;12.03;57.21
550;BME280;20066;48.764;9.176;2023-04-25T01:35:32;97544.50;;;11.90;56.07
550;BME280;20066;48.764;9.176;2023-04-25T01:38:00;97546.66;;;12.03;56.68
550;BME280;20066;48.764;9.176;2023-04-25T01:40:30;97543.50;;;12.31;56.02
550;BME280;20066;48.764;9.176;2023-04-25T01:42:59;97544.03;;;12.22;56.36
550;BME280;20066;48.764;9.176;2023-04-25T01:45:27;97536.53;;;12.57;55.57
550;BME280;20066;48.764;9.176;2023-04-25T01:47:55;97547.94;;;12.64;55.40
550;BME280;20066;48.764;9.176;2023-04-25T01:50:25;97551.72;;;12.47;56.28
550;BME280;20066;48.764;9.176;2023-04-25T01:52:53;97545.13;;;12.71;55.82
550;BME280;20066;48.764;9.176;2023-04-25T01:55:21;97541.50;;;12.58;55.72
550;BME280;20066;48.764;9.176;2023-04-25T01:57:51;97542.47;;;12.68;55.55
550;BME280;20066;48.764;9.176;2023-04-25T02:00:18;97542.28;;;12.59;55.64
550;BME280;20066;48.764;9.176;2023-04-25T02:02:47;97540.16;;;12.47;55.51
550;BME280;20066;48.764;9.176;2023-04-25T02:05:17;97541.31;;;11.11;58.76
550;BME280;20066;48.764;9.176;2023-04-25T02:07:45;97529.50;;;10.27;61.92
550;BME280;20066;48.764;9.176;2023-04-25T02:10:13;97533.47;;;10.04;62.43
550;BME280;20066;48.764;9.176;2023-04-25T02:12:41;97530.22;;;10.31;61.92
550;BME280;20066;48.764;9.176;2023-04-25T02:15:10;97542.59;;;10.14;62.68
550;BME280;20066;48.764;9.176;2023-04-25T02:17:38;97530.69;;;10.19;62.70
550;BME280;20066;48.764;9.176;2023-04-25T02:20:06;97533.06;;;10.06;62.28
550;BME280;20066;48.764;9.176;2023-04-25T02:22:34;97538.44;;;10.58;60.42
550;BME280;20066;48.764;9.176;2023-04-25T02:25:03;97533.28;;;11.38;58.12
550;BME280;20066;48.764;9.176;2023-04-25T02:27:32;97527.41;;;10.82;59.74
550;BME280;20066;48.764;9.176;2023-04-25T02:30:00;97522.72;;;11.20;58.11
550;BME280;20066;48.764;9.176;2023-04-25T02:32:29;97526.19;;;11.51;56.82
550;BME280;20066;48.764;9.176;2023-04-25T02:34:57;97519.78;;;10.40;59.39
550;BME280;20066;48.764;9.176;2023-04-25T02:37:25;97520.78;;;11.51;56.79
550;BME280;20066;48.764;9.176;2023-04-25T02:39:52;97519.38;;;10.79;57.85
550;BME280;20066;48.764;9.176;2023-04-25T02:42:20;97519.78;;;10.77;59.03
550;BME280;20066;48.764;9.176;2023-04-25T02:44:48;97523.16;;;11.49;56.49
550;BME280;20066;48.764;9.176;2023-04-25T02:47:16;97523.13;;;11.80;55.94
550;BME280;20066;48.764;9.176;2023-04-25T02:49:45;97514.59;;;12.08;55.23
550;BME280;20066;48.764;9.176;2023-04-25T02:52:13;97513.78;;;10.97;57.68
550;BME280;20066;48.764;9.176;2023-04-25T02:54:41;97498.84;;;10.14;59.34
550;BME280;20066;48.764;9.176;2023-04-25T02:57:09;97510.25;;;10.69;58.23
550;BME280;20066;48.764;9.176;2023-04-25T02:59:36;97508.66;;;10.75;58.53
550;BME280;20066;48.764;9.176;2023-04-25T03:02:04;97517.13;;;11.38;56.39
550;BME280;20066;48.764;9.176;2023-04-25T03:04:32;97519.03;;;10.36;58.50
550;BME280;20066;48.764;9.176;2023-04-25T03:07:01;97519.13;;;11.04;57.71
550;BME280;20066;48.764;9.176;2023-04-25T03:09:29;97517.50;;;11.10;56.63
550;BME280;20066;48.764;9.176;2023-04-25T03:11:57;97516.50;;;11.57;56.40
550;BME280;20066;48.764;9.176;2023-04-25T03:14:25;97514.31;;;12.03;55.21
550;BME280;20066;48.764;9.176;2023-04-25T03:16:53;97519.94;;;12.12;55.59
550;BME280;20066;48.764;9.176;2023-04-25T03:19:21;97515.22;;;12.19;55.85
550;BME280;20066;48.764;9.176;2023-04-25T03:21:48;97511.19;;;12.51;54.64
550;BME280;20066;48.764;9.176;2023-04-25T03:24:17;97505.16;;;12.43;54.48
550;BME280;20066;48.764;9.176;2023-04-25T03:26:45;97501.13;;;12.31;55.01
550;BME280;20066;48.764;9.176;2023-04-25T03:29:13;97499.69;;;12.47;54.90
550;BME280;20066;48.764;9.176;2023-04-25T03:31:41;97499.19;;;12.32;54.59
550;BME280;20066;48.764;9.176;2023-04-25T03:34:09;97500.41;;;12.51;53.74
550;BME280;20066;48.764;9.176;2023-04-25T03:36:36;97502.16;;;12.37;53.63
550;BME280;20066;48.764;9.176;2023-04-25T03:39:07;97505.19;;;11.70;53.87
550;BME280;20066;48.764;9.176;2023-04-25T03:41:36;97500.97;;;12.19;53.40
550;BME280;20066;48.764;9.176;2023-04-25T03:44:03;97507.13;;;12.19;53.52
550;BME280;20066;48.764;9.176;2023-04-25T03:46:31;97505.34;;;12.32;53.72
550;BME280;20066;48.764;9.176;2023-04-25T03:48:59;97511.28;;;12.24;55.15
550;BME280;20066;48.764;9.176;2023-04-25T03:51:27;97509.22;;;12.08;55.47
550;BME280;20066;48.764;9.176;2023-04-25T03:53:55;97508.97;;;12.22;55.07
550;BME280;20066;48.764;9.176;2023-04-25T03:56:22;97507.97;;;12.36;54.94
550;BME280;20066;48.764;9.176;2023-04-25T03:58:52;97502.75;;;12.49;54.71
550;BME280;20066;48.764;9.176;2023-04-25T04:01:20;97498.56;;;12.24;55.62
550;BME280;20066;48.764;9.176;2023-04-25T04:03:48;97495.72;;;12.31;54.35
550;BME280;20066;48.764;9.176;2023-04-25T04:06:16;97502.38;;;12.27;54.47
550;BME280;20066;48.764;9.176;2023-04-25T04:08:44;97502.13;;;11.94;55.78
550;BME280;20066;48.764;9.176;2023-04-25T04:11:12;97504.06;;;11.67;55.64
550;BME280;20066;48.764;9.176;2023-04-25T04:13:40;97497.84;;;11.97;55.92
550;BME280;20066;48.764;9.176;2023-04-25T04:16:09;97502.84;;;11.72;56.88
550;BME280;20066;48.764;9.176;2023-04-25T04:18:37;97501.41;;;12.14;55.54
550;BME280;20066;48.764;9.176;2023-04-25T04:21:05;97507.03;;;12.23;54.86
550;BME280;20066;48.764;9.176;2023-04-25T04:23:32;97506.03;;;11.90;56.75
550;BME280;20066;48.764;9.176;2023-04-25T04:26:03;97523.81;;;11.57;57.00
550;BME280;20066;48.764;9.176;2023-04-25T04:28:31;97521.81;;;11.34;58.68
550;BME280;20066;48.764;9.176;2023-04-25T04:30:59;97509.25;;;10.90;58.60
550;BME280;20066;48.764;9.176;2023-04-25T04:33:28;97511.75;;;9.81;62.75
550;BME280;20066;48.764;9.176;2023-04-25T04:35:57;97511.44;;;9.76;62.64
550;BME280;20066;48.764;9.176;2023-04-25T04:38:25;97514.34;;;10.47;60.01
550;BME280;20066;48.764;9.176;2023-04-25T04:40:53;97526.47;;;10.62;60.41
550;BME280;20066;48.764;9.176;2023-04-25T04:43:20;97515.56;;;10.76;59.19
550;BME280;20066;48.764;9.176;2023-04-25T04:45:49;97520.56;;;11.12;58.92
550;BME280;20066;48.764;9.176;2023-04-25T04:48:17;97518.66;;;11.39;57.88
550;BME280;20066;48.764;9.176;2023-04-25T04:50:46;97531.94;;;11.53;57.55
550;BME280;20066;48.764;9.176;2023-04-25T04:53:14;97522.81;;;11.74;57.15
550;BME280;20066;48.764;9.176;2023-04-25T04:55:42;97533.00;;;11.59;58.30
550;BME280;20066;48.764;9.176;2023-04-25T04:58:10;97535.38;;;11.54;58.22
550;BME280;20066;48.764;9.176;2023-04-25T05:00:38;97532.41;;;11.75;56.82
550;BME280;20066;48.764;9.176;2023-04-25T05:03:06;97541.81;;;11.90;56.77
550;BME280;20066;48.764;9.176;2023-04-25T05:05:34;97544.84;;;11.96;56.69
550;BME280;20066;48.764;9.176;2023-04-25T05:08:07;97546.69;;;11.99;57.59
550;BME280;20066;48.764;9.176;2023-04-25T05:10:35;97540.75;;;12.34;56.62
550;BME280;20066;48.764;9.176;2023-04-25T05:13:04;97545.44;;;12.54;55.56
550;BME280;20066;48.764;9.176;2023-04-25T05:15:32;97541.78;;;12.64;54.87
550;BME280;20066;48.764;9.176;2023-04-25T05:18:00;97543.13;;;12.52;54.85
550;BME280;20066;48.764;9.176;2023-04-25T05:20:28;97542.75;;;12.30;55.93
550;BME280;20066;48.764;9.176;2023-04-25T05:22:56;97545.28;;;12.41;54.14
550;BME280;20066;48.764;9.176;2023-04-25T05:25:25;97553.72;;;12.43;55.36
550;BME280;20066;48.764;9.176;2023-04-25T05:27:53;97550.31;;;12.16;54.91
550;BME280;20066;48.764;9.176;2023-04-25T05:30:21;97552.44;;;12.51;54.63
550;BME280;20066;48.764;9.176;2023-04-25T05:32:49;97548.72;;;12.42;54.47
550;BME280;20066;48.764;9.176;2023-04-25T05:35:17;97548.72;;;12.65;54.34
550;BME280;20066;48.764;9.176;2023-04-25T05:37:45;97552.06;;;12.49;54.41
550;BME280;20066;48.764;9.176;2023-04-25T05:40:13;97552.50;;;12.91;53.42
550;BME280;20066;48.764;9.176;2023-04-25T05:42:42;97555.25;;;12.87;52.70
550;BME280;20066;48.764;9.176;2023-04-25T05:45:10;97558.13;;;13.20;52.50
550;BME280;20066;48.764;9.176;2023-04-25T05:47:39;97561.44;;;13.07;52.54
550;BME280;20066;48.764;9.176;2023-04-25T05:50:08;97554.66;;;12.99;51.71
550;BME280;20066;48.764;9.176;2023-04-25T05:52:36;97560.09;;;11.79;54.30
550;BME280;20066;48.764;9.176;2023-04-25T05:55:05;97556.59;;;12.06;53.88
550;BME280;20066;48.764;9.176;2023-04-25T05:57:33;97554.34;;;11.47;54.91
550;BME280;20066;48.764;9.176;2023-04-25T06:00:03;97554.69;;;11.49;54.17
550;BME280;20066;48.764;9.176;2023-04-25T06:02:35;97557.44;;;11.76;54.54
550;BME280;20066;48.764;9.176;2023-04-25T06:05:04;97554.53;;;11.90;53.74
550;BME280;20066;48.764;9.176;2023-04-25T06:07:32;97560.19;;;11.99;53.51
550;BME280;20066;48.764;9.176;2023-04-25T06:10:00;97560.81;;;12.33;51.93
550;BME280;20066;48.764;9.176;2023-04-25T06:12:28;97559.63;;;12.34;52.04
550;BME280;20066;48.764;9.176;2023-04-25T06:14:56;97560.44;;;12.31;52.15
550;BME280;20066;48.764;9.176;2023-04-25T06:17:26;97563.59;;;12.03;53.34
550;BME280;20066;48.764;9.176;2023-04-25T06:19:54;97556.72;;;11.41;55.44
550;BME280;20066;48.764;9.176;2023-04-25T06:22:22;97554.06;;;11.68;53.18
550;BME280;20066;48.764;9.176;2023-04-25T06:24:50;97540.91;;;12.01;52.99
550;BME280;20066;48.764;9.176;2023-04-25T06:27:18;97542.03;;;11.46;53.94
550;BME280;20066;48.764;9.176;2023-04-25T06:29:46;97546.28;;;12.27;53.05
550;BME280;20066;48.764;9.176;2023-04-25T06:32:14;97543.38;;;12.15;53.75
550;BME280;20066;48.764;9.176;2023-04-25T06:34:43;97542.91;;;11.96;54.02
550;BME280;20066;48.764;9.176;2023-04-25T06:37:12;97541.66;;;12.28;53.62
550;BME280;20066;48.764;9.176;2023-04-25T06:39:39;97541.06;;;12.60;54.19
550;BME280;20066;48.764;9.176;2023-04-25T06:42:07;97546.78;;;12.19;56.82
550;BME280;20066;48.764;9.176;2023-04-25T06:44:35;97550.47;;;12.52;54.43
550;BME280;20066;48.764;9.176;2023-04-25T06:47:04;97553.59;;;12.27;56.59
550;BME280;20066;48.764;9.176;2023-04-25T06:49:32;97562.44;;;12.04;57.04
550;BME280;20066;48.764;9.176;2023-04-25T06:52:01;97553.94;;;12.52;55.85
550;BME280;20066;48.764;9.176;2023-04-25T06:54:29;97556.72;;;12.68;55.08
550;BME280;20066;48.764;9.176;2023-04-25T06:56:57;97548.13;;;12.30;54.86
550;BME280;20066;48.764;9.176;2023-04-25T06:59:27;97547.69;;;12.12;55.94
550;BME280;20066;48.764;9.176;2023-04-25T07:01:55;97548.13;;;12.30;55.03
550;BME280;20066;48.764;9.176;2023-04-25T07:04:23;97550.31;;;12.39;54.96
550;BME280;20066;48.764;9.176;2023-04-25T07:06:52;97544.09;;;12.19;56.10
550;BME280;20066;48.764;9.176;2023-04-25T07:09:23;97550.16;;;11.99;54.84
550;BME280;20066;48.764;9.176;2023-04-25T07:11:51;97558.34;;;12.19;55.59
550;BME280;20066;48.764;9.176;2023-04-25T07:14:20;97558.50;;;12.55;54.63
550;BME280;20066;48.764;9.176;2023-04-25T07:16:48;97555.50;;;12.03;56.21
550;BME280;20066;48.764;9.176;2023-04-25T07:19:16;97560.16;;;12.26;55.64
550;BME280;20066;48.764;9.176;2023-04-25T07:21:45;97557.19;;;12.44;55.56
550;BME280;20066;48.764;9.176;2023-04-25T07:24:13;97562.19;;;11.34;59.61
550;BME280;20066;48.764;9.176;2023-04-25T07:26:42;97561.47;;;11.60;59.98
550;BME280;20066;48.764;9.176;2023-04-25T07:29:10;97561.53;;;11.27;59.62
550;BME280;20066;48.764;9.176;2023-04-25T07:31:39;97564.19;;;10.96;61.00
550;BME280;20066;48.764;9.176;2023-04-25T07:34:07;97566.41;;;11.35;60.95
550;BME280;20066;48.764;9.176;2023-04-25T07:36:35;97575.47;;;11.48;61.37
550;BME280;20066;48.764;9.176;2023-04-25T07:39:04;97573.63;;;11.42;61.65
550;BME280;20066;48.764;9.176;2023-04-25T07:41:33;97571.00;;;11.69;60.62
550;BME280;20066;48.764;9.176;2023-04-25T07:44:03;97575.00;;;11.87;60.78
550;BME280;20066;48.764;9.176;2023-04-25T07:46:31;97581.75;;;11.38;61.46
550;BME280;20066;48.764;9.176;2023-04-25T07:49:00;97580.22;;;11.37;62.11
550;BME280;20066;48.764;9.176;2023-04-25T07:51:28;97588.91;;;11.82;61.16
550;BME280;20066;48.764;9.176;2023-04-25T07:53:56;97593.09;;;11.87;60.96
550;BME280;20066;48.764;9.176;2023-04-25T07:56:24;97600.72;;;11.92;60.73
550;BME280;20066;48.764;9.176;2023-04-25T07:58:52;97597.50;;;11.74;60.60
550;BME280;20066;48.764;9.176;2023-04-25T08:01:22;97592.84;;;11.74;60.78
550;BME280;20066;48.764;9.176;2023-04-25T08:03:50;97600.31;;;10.95;62.90
550;BME280;20066;48.764;9.176;2023-04-25T08:06:19;97597.78;;;10.77;64.48
550;BME280;20066;48.764;9.176;2023-04-25T08:08:47;97599.09;;;10.62;65.53
550;BME280;20066;48.764;9.176;2023-04-25T08:11:15;97611.28;;;10.26;66.93
550;BME280;20066;48.764;9.176;2023-04-25T08:13:44;97612.97;;;9.98;68.17
550;BME280;20066;48.764;9.176;2023-04-25T08:16:12;97609.41;;;10.16;68.54
550;BME280;20066;48.764;9.176;2023-04-25T08:18:42;97618.19;;;10.20;68.39
550;BME280;20066;48.764;9.176;2023-04-25T08:21:10;97621.63;;;10.20;68.19
550;BME280;20066;48.764;9.176;2023-04-25T08:23:39;97611.38;;;10.60;68.16
550;BME280;20066;48.764;9.176;2023-04-25T08:26:07;97622.03;;;10.26;66.47
550;BME280;20066;48.764;9.176;2023-04-25T08:28:35;97629.06;;;10.61;66.70
550;BME280;20066;48.764;9.176;2023-04-25T08:31:03;97631.84;;;10.47;67.76
550;BME280;20066;48.764;9.176;2023-04-25T08:33:31;97642.78;;;10.25;68.61
550;BME280;20066;48.764;9.176;2023-04-25T08:36:00;97635.75;;;10.38;68.65
550;BME280;20066;48.764;9.176;2023-04-25T08:38:29;97636.03;;;10.55;68.13
550;BME280;20066;48.764;9.176;2023-04-25T08:40:59;97652.47;;;9.98;69.14
550;BME280;20066;48.764;9.176;2023-04-25T08:43:29;97652.81;;;10.07;69.22
550;BME280;20066;48.764;9.176;2023-04-25T08:45:59;97652.72;;;10.32;68.26
550;BME280;20066;48.764;9.176;2023-04-25T08:48:28;97656.34;;;10.59;67.68
550;BME280;20066;48.764;9.176;2023-04-25T08:50:56;97661.94;;;10.20;68.67
550;BME280;20066;48.764;9.176;2023-04-25T08:53:27;97658.25;;;10.62;67.34
550;BME280;20066;48.764;9.176;2023-04-25T08:55:58;97661.97;;;10.79;67.45
550;BME280;20066;48.764;9.176;2023-04-25T08:58:28;97668.38;;;10.92;67.11
550;BME280;20066;48.764;9.176;2023-04-25T09:00:56;97668.59;;;11.46;65.85
550;BME280;20066;48.764;9.176;2023-04-25T09:03:24;97669.16;;;11.68;64.57
550;BME280;20066;48.764;9.176;2023-04-25T09:05:53;97668.34;;;10.96;66.50
550;BME280;20066;48.764;9.176;2023-04-25T09:08:21;97676.00;;;10.97;68.26
550;BME280;20066;48.764;9.176;2023-04-25T09:10:50;97679.63;;;10.80;69.57
550;BME280;20066;48.764;9.176;2023-04-25T09:13:24;97694.19;;;10.24;68.35
550;BME280;20066;48.764;9.176;2023-04-25T09:15:54;97692.25;;;10.28;67.47
550;BME280;20066;48.764;9.176;2023-04-25T09:18:23;97688.47;;;10.77;67.33
550;BME280;20066;48.764;9.176;2023-04-25T09:20:56;97693.41;;;10.34;67.83
550;BME280;20066;48.764;9.176;2023-04-25T09:23:29;97692.84;;;9.84;69.48
550;BME280;20066;48.764;9.176;2023-04-25T09:25:59;97696.56;;;10.07;69.03
550;BME280;20066;48.764;9.176;2023-04-25T09:28:27;97703.19;;;9.89;71.27
550;BME280;20066;48.764;9.176;2023-04-25T09:30:57;97709.66;;;10.02;70.72
550;BME280;20066;48.764;9.176;2023-04-25T09:33:29;97702.63;;;9.14;73.09
550;BME280;20066;48.764;9.176;2023-04-25T09:36:02;97723.84;;;10.10;70.79
550;BME280;20066;48.764;9.176;2023-04-25T09:38:36;97723.13;;;9.95;69.89
550;BME280;20066;48.764;9.176;2023-04-25T09:41:09;97725.47;;;9.82;70.78
550;BME280;20066;48.764;9.176;2023-04-25T09:43:39;97722.88;;;10.48;68.41
550;BME280;20066;48.764;9.176;2023-04-25T09:46:08;97725.38;;;10.76;66.41
550;BME280;20066;48.764;9.176;2023-04-25T09:48:38;97727.09;;;9.55;70.53
550;BME280;20066;48.764;9.176;2023-04-25T09:51:07;97733.25;;;10.42;67.64
550;BME280;20066;48.764;9.176;2023-04-25T09:53:36;97738.63;;;11.01;66.08
550;BME280;20066;48.764;9.176;2023-04-25T09:56:06;97738.81;;;10.76;66.24
550;BME280;20066;48.764;9.176;2023-04-25T09:58:36;97746.91;;;10.00;69.31
550;BME280;20066;48.764;9.176;2023-04-25T10:01:07;97745.09;;;9.72;70.72
550;BME280;20066;48.764;9.176;2023-04-25T10:03:56;97748.75;;;10.17;69.49
550;BME280;20066;48.764;9.176;2023-04-25T10:06:27;97748.81;;;10.03;69.31
550;BME280;20066;48.764;9.176;2023-04-25T10:08:56;97751.97;;;9.80;70.27
550;BME280;20066;48.764;9.176;2023-04-25T10:11:24;97759.59;;;9.89;69.15
550;BME280;20066;48.764;9.176;2023-04-25T10:13:56;97762.00;;;9.51;69.14
550;BME280;20066;48.764;9.176;2023-04-25T10:16:24;97767.72;;;9.60;69.35
550;BME280;20066;48.764;9.176;2023-04-25T10:18:53;97775.22;;;10.26;67.15
550;BME280;20066;48.764;9.176;2023-04-25T10:21:21;97776.81;;;10.86;64.88
550;BME280;20066;48.764;9.176;2023-04-25T10:23:49;97785.59;;;10.90;65.94
550;BME280;20066;48.764;9.176;2023-04-25T10:26:18;97789.16;;;10.79;64.80
550;BME280;20066;48.764;9.176;2023-04-25T10:29:00;97783.88;;;10.58;64.93
550;BME280;20066;48.764;9.176;2023-04-25T10:31:30;97794.63;;;10.65;67.58
550;BME280;20066;48.764;9.176;2023-04-25T10:33:59;97788.66;;;10.12;67.12
550;BME280;20066;48.764;9.176;2023-04-25T10:36:31;97794.97;;;10.71;65.83
550;BME280;20066;48.764;9.176;2023-04-25T10:39:03;97797.66;;;10.67;64.62
550;BME280;20066;48.764;9.176;2023-04-25T10:41:45;97807.06;;;11.00;64.79
550;BME280;20066;48.764;9.176;2023-04-25T10:44:15;97799.69;;;11.11;65.47
550;BME280;20066;48.764;9.176;2023-04-25T10:46:44;97804.75;;;11.02;65.48
550;BME280;20066;48.764;9.176;2023-04-25T10:49:28;97804.38;;;10.24;68.28
550;BME280;20066;48.764;9.176;2023-04-25T10:52:24;97811.19;;;10.53;68.47
550;BME280;20066;48.764;9.176;2023-04-25T10:54:54;97821.31;;;10.97;65.97
550;BME280;20066;48.764;9.176;2023-04-25T10:57:36;97826.41;;;9.80;70.66
550;BME280;20066;48.764;9.176;2023-04-25T11:00:14;97831.59;;;8.45;73.01
550;BME280;20066;48.764;9.176;2023-04-25T11:02:44;97832.94;;;9.22;73.43
550;BME280;20066;48.764;9.176;2023-04-25T11:05:22;97844.41;;;8.90;71.58
550;BME280;20066;48.764;9.176;2023-04-25T11:07:52;97845.41;;;8.54;73.07
550;BME280;20066;48.764;9.176;2023-04-25T11:10:41;97851.63;;;8.76;75.96
550;BME280;20066;48.764;9.176;2023-04-25T11:13:09;97844.47;;;9.40;72.49
550;BME280;20066;48.764;9.176;2023-04-25T11:15:38;97852.06;;;9.95;69.92
550;BME280;20066;48.764;9.176;2023-04-25T11:18:06;97847.13;;;9.68;69.96
550;BME280;20066;48.764;9.176;2023-04-25T11:20:35;97849.81;;;9.61;71.52
550;BME280;20066;48.764;9.176;2023-04-25T11:23:04;97862.28;;;10.57;66.74
550;BME280;20066;48.764;9.176;2023-04-25T11:25:32;97862.31;;;10.50;66.38
550;BME280;20066;48.764;9.176;2023-04-25T11:28:03;97857.91;;;10.84;63.99
550;BME280;20066;48.764;9.176;2023-04-25T11:30:31;97859.91;;;10.73;63.83
550;BME280;20066;48.764;9.176;2023-04-25T11:33:00;97862.59;;;10.66;64.56
550;BME280;20066;48.764;9.176;2023-04-25T11:35:30;97864.63;;;10.48;63.53
550;BME280;20066;48.764;9.176;2023-04-25T11:37:59;97860.06;;;11.10;60.79
550;BME280;20066;48.764;9.176;2023-04-25T11:40:30;97857.69;;;11.71;60.26
550;BME280;20066;48.764;9.176;2023-04-25T11:42:59;97865.50;;;11.00;60.67
550;BME280;20066;48.764;9.176;2023-04-25T11:45:28;97867.56;;;11.37;60.85
550;BME280;20066;48.764;9.176;2023-04-25T11:47:57;97861.06;;;11.31;62.60
550;BME280;20066;48.764;9.176;2023-04-25T11:50:28;97866.09;;;11.80;58.67
550;BME280;20066;48.764;9.176;2023-04-25T11:52:56;97861.94;;;12.10;57.55
550;BME280;20066;48.764;9.176;2023-04-25T11:55:24;97871.88;;;12.20;58.40
550;BME280;20066;48.764;9.176;2023-04-25T11:57:52;97870.94;;;11.96;58.74
550;BME280;20066;48.764;9.176;2023-04-25T12:00:21;97873.75;;;11.30;58.61
550;BME280;20066;48.764;9.176;2023-04-25T12:02:51;97868.38;;;11.82;59.00
550;BME280;20066;48.764;9.176;2023-04-25T12:05:23;97884.34;;;12.03;58.60
550;BME280;20066;48.764;9.176;2023-04-25T12:07:55;97885.78;;;12.49;57.26
550;BME280;20066;48.764;9.176;2023-04-25T12:10:24;97884.72;;;11.57;61.29
550;BME280;20066;48.764;9.176;2023-04-25T12:12:52;97881.59;;;11.62;60.73
550;BME280;20066;48.764;9.176;2023-04-25T12:15:24;97882.81;;;12.02;59.71
550;BME280;20066;48.764;9.176;2023-04-25T12:17:53;97888.16;;;12.06;57.16
550;BME280;20066;48.764;9.176;2023-04-25T12:20:24;97884.47;;;11.37;58.51
550;BME280;20066;48.764;9.176;2023-04-25T12:22:53;97891.41;;;11.38;61.65
550;BME280;20066;48.764;9.176;2023-04-25T12:25:37;97889.16;;;11.30;59.75
550;BME280;20066;48.764;9.176;2023-04-25T12:28:12;97896.06;;;11.31;59.59
550;BME280;20066;48.764;9.176;2023-04-25T12:30:54;97896.34;;;11.43;59.29
550;BME280;20066;48.764;9.176;2023-04-25T12:33:22;97893.25;;;10.82;61.58
550;BME280;20066;48.764;9.176;2023-04-25T12:35:50;97897.50;;;10.83;63.01
550;BME280;20066;48.764;9.176;2023-04-25T12:38:23;97901.31;;;10.90;64.71
550;BME280;20066;48.764;9.176;2023-04-25T12:40:53;97899.16;;;11.29;64.86
550;BME280;20066;48.764;9.176;2023-04-25T12:43:21;97895.22;;;10.75;65.21
550;BME280;20066;48.764;9.176;2023-04-25T12:45:49;97897.63;;;10.52;65.39
550;BME280;20066;48.764;9.176;2023-04-25T12:48:18;97899.00;;;10.92;64.20
550;BME280;20066;48.764;9.176;2023-04-25T12:50:47;97898.59;;;10.93;62.35
550;BME280;20066;48.764;9.176;2023-04-25T12:53:15;97899.34;;;11.63;61.30
550;BME280;20066;48.764;9.176;2023-04-25T12:55:43;97903.75;;;11.32;62.29
550;BME280;20066;48.764;9.176;2023-04-25T12:58:13;97902.69;;;11.74;60.54
550;BME280;20066;48.764;9.176;2023-04-25T13:00:41;97902.78;;;11.64;59.59
550;BME280;20066;48.764;9.176;2023-04-25T13:03:09;97898.13;;;12.50;58.52
550;BME280;20066;48.764;9.176;2023-04-25T13:05:39;97904.31;;;11.61;59.70
550;BME280;20066;48.764;9.176;2023-04-25T13:08:07;97898.00;;;12.91;56.44
550;BME280;20066;48.764;9.176;2023-04-25T13:10:35;97894.53;;;12.90;56.50
550;BME280;20066;48.764;9.176;2023-04-25T13:13:04;97896.19;;;13.38;56.29
550;BME280;20066;48.764;9.176;2023-04-25T13:15:34;97898.97;;;12.43;57.80
550;BME280;20066;48.764;9.176;2023-04-25T13:18:02;97897.47;;;11.97;57.46
550;BME280;20066;48.764;9.176;2023-04-25T13:20:30;97894.66;;;11.71;59.24
550;BME280;20066;48.764;9.176;2023-04-25T13:22:58;97895.41;;;11.71;60.18
550;BME280;20066;48.764;9.176;2023-04-25T13:25:28;97892.91;;;11.94;60.43
550;BME280;20066;48.764;9.176;2023-04-25T13:27:56;97894.78;;;12.69;59.37
550;BME280;20066;48.764;9.176;2023-04-25T13:30:24;97900.44;;;12.82;56.72
550;BME280;20066;48.764;9.176;2023-04-25T13:32:53;97896.03;;;12.61;58.69